createdAt,value
2022-10-18T00:00:06.466Z,6.93
2022-10-18T00:02:33.722Z,7.43
2022-10-18T00:05:00.701Z,7.83
2022-10-18T00:07:27.464Z,6.60
2022-10-18T00:09:54.290Z,7.10
2022-10-18T00:12:21.097Z,7.40
2022-10-18T00:14:51.144Z,8.23
2022-10-18T00:17:18.372Z,7.63
2022-10-18T00:19:46.527Z,7.57
2022-10-18T00:22:13.438Z,7.97
2022-10-18T00:24:40.161Z,8.70
2022-10-18T00:27:07.072Z,8.60
2022-10-18T00:29:33.913Z,9.50
2022-10-18T00:32:00.645Z,9.20
2022-10-18T00:34:27.409Z,9.40
2022-10-18T00:36:55.059Z,10.10
2022-10-18T00:39:22.391Z,10.50
2022-10-18T00:41:49.777Z,10.30
2022-10-18T00:44:16.417Z,11.10
2022-10-18T00:46:45.509Z,10.40
2022-10-18T00:49:16.459Z,10.63
2022-10-18T00:51:51.552Z,10.90
2022-10-18T00:54:20.214Z,10.93
2022-10-18T00:56:46.944Z,10.50
2022-10-18T00:59:16.026Z,11.50
2022-10-18T01:01:43.117Z,11.63
2022-10-18T01:04:09.970Z,12.43
2022-10-18T01:09:33.714Z,11.37
2022-10-18T01:12:15.198Z,12.00
2022-10-18T01:14:51.006Z,12.00
2022-10-18T01:17:46.115Z,10.60
2022-10-18T01:20:31.563Z,11.03
2022-10-18T01:23:07.689Z,11.20
2022-10-18T01:26:07.702Z,12.07
2022-10-18T01:29:03.055Z,11.77
2022-10-18T01:31:32.598Z,13.70
2022-10-18T01:34:06.573Z,11.87
2022-10-18T01:36:36.868Z,12.20
2022-10-18T01:39:09.499Z,12.43
2022-10-18T01:41:40.653Z,12.37
2022-10-18T01:44:11.391Z,11.90
2022-10-18T01:46:41.263Z,13.20
2022-10-18T01:49:08.381Z,12.70
2022-10-18T01:51:35.451Z,12.80
2022-10-18T01:54:02.614Z,13.20
2022-10-18T01:56:35.659Z,13.90
2022-10-18T01:59:17.157Z,12.87
2022-10-18T02:02:05.017Z,14.03
2022-10-18T02:04:34.928Z,12.73
2022-10-18T02:07:16.413Z,12.57
2022-10-18T02:10:08.550Z,13.27
2022-10-18T02:12:40.527Z,12.93
2022-10-18T02:15:09.970Z,12.77
2022-10-18T02:17:38.934Z,13.63
2022-10-18T02:20:08.355Z,13.87
2022-10-18T02:22:37.121Z,14.17
2022-10-18T02:25:10.284Z,13.80
2022-10-18T02:27:38.032Z,15.17
2022-10-18T02:30:05.987Z,13.80
2022-10-18T02:32:40.984Z,14.63
2022-10-18T02:35:17.361Z,15.60
2022-10-18T02:37:46.871Z,14.53
2022-10-18T02:40:14.801Z,14.23
2022-10-18T02:42:48.050Z,13.50
2022-10-18T02:45:15.562Z,16.17
2022-10-18T02:47:42.600Z,14.87
2022-10-18T02:50:09.572Z,14.80
2022-10-18T02:52:36.373Z,14.60
2022-10-18T02:55:03.286Z,14.60
2022-10-18T02:57:31.092Z,15.30
2022-10-18T02:59:58.265Z,16.03
2022-10-18T03:02:25.246Z,16.00
2022-10-18T03:04:51.921Z,15.00
2022-10-18T03:07:18.716Z,16.20
2022-10-18T03:09:45.406Z,15.70
2022-10-18T03:12:12.153Z,15.80
2022-10-18T03:14:38.858Z,16.97
2022-10-18T03:17:05.591Z,16.37
2022-10-18T03:19:32.274Z,15.30
2022-10-18T03:21:58.930Z,15.50
2022-10-18T03:24:25.775Z,17.10
2022-10-18T03:26:52.439Z,16.03
2022-10-18T03:29:19.239Z,15.27
2022-10-18T03:31:45.954Z,15.90
2022-10-18T03:34:12.701Z,16.27
2022-10-18T03:36:41.247Z,18.07
2022-10-18T03:39:08.090Z,15.80
2022-10-18T03:41:34.795Z,17.53
2022-10-18T03:44:01.562Z,17.60
2022-10-18T03:46:28.363Z,18.20
2022-10-18T03:48:55.172Z,18.80
2022-10-18T03:51:21.879Z,15.77
2022-10-18T03:53:48.639Z,12.97
2022-10-18T03:56:15.447Z,12.43
2022-10-18T03:58:42.175Z,10.80
2022-10-18T04:01:09.145Z,10.43
2022-10-18T04:03:35.971Z,11.37
2022-10-18T04:06:03.624Z,9.73
2022-10-18T04:08:30.930Z,8.77
2022-10-18T04:10:57.594Z,9.00
2022-10-18T04:13:24.458Z,10.17
2022-10-18T04:15:51.172Z,11.30
2022-10-18T04:18:17.930Z,12.50
2022-10-18T04:20:44.581Z,12.33
2022-10-18T04:23:11.375Z,12.90
2022-10-18T04:25:38.175Z,13.93
2022-10-18T04:28:05.132Z,13.33
2022-10-18T04:30:31.917Z,14.20
2022-10-18T04:32:58.671Z,13.27
2022-10-18T04:35:26.103Z,12.13
2022-10-18T04:37:52.807Z,11.33
2022-10-18T04:40:20.211Z,10.67
2022-10-18T04:42:47.250Z,11.80
2022-10-18T04:45:14.049Z,8.70
2022-10-18T04:47:40.756Z,8.20
2022-10-18T04:50:07.806Z,8.90
2022-10-18T04:52:34.632Z,9.13
2022-10-18T04:55:01.283Z,8.00
2022-10-18T04:57:28.149Z,7.00
2022-10-18T04:59:54.918Z,8.83
2022-10-18T05:02:21.674Z,9.07
2022-10-18T05:04:48.517Z,8.50
2022-10-18T05:07:15.183Z,8.50
2022-10-18T05:09:41.964Z,9.40
2022-10-18T05:12:08.781Z,7.93
2022-10-18T05:14:35.493Z,10.07
2022-10-18T05:17:02.173Z,9.60
2022-10-18T05:19:28.977Z,9.77
2022-10-18T05:21:55.701Z,9.20
2022-10-18T05:24:25.428Z,9.40
2022-10-18T05:26:54.371Z,8.23
2022-10-18T05:29:21.218Z,9.07
2022-10-18T05:31:48.994Z,8.87
2022-10-18T05:34:16.308Z,9.90
2022-10-18T05:36:43.113Z,9.60
2022-10-18T05:39:09.848Z,9.57
2022-10-18T05:41:36.569Z,10.90
2022-10-18T05:44:04.931Z,10.20
2022-10-18T05:46:32.626Z,9.73
2022-10-18T05:48:59.355Z,10.70
2022-10-18T05:51:26.099Z,12.33
2022-10-18T05:53:53.205Z,13.30
2022-10-18T05:56:19.963Z,16.23
2022-10-18T05:58:53.020Z,15.77
2022-10-18T06:01:20.172Z,17.80
2022-10-18T06:03:47.443Z,16.37
2022-10-18T06:06:15.014Z,17.07
2022-10-18T06:08:43.102Z,19.40
2022-10-18T06:11:16.445Z,18.83
2022-10-18T06:13:45.686Z,20.57
2022-10-18T06:16:14.082Z,19.10
2022-10-18T06:18:41.617Z,19.20
2022-10-18T06:21:09.235Z,20.77
2022-10-18T06:23:36.099Z,19.73
2022-10-18T06:26:05.889Z,20.87
2022-10-18T06:28:35.122Z,19.07
2022-10-18T06:31:02.616Z,19.17
2022-10-18T06:33:31.849Z,20.60
2022-10-18T06:36:04.349Z,20.80
2022-10-18T06:38:31.226Z,20.70
2022-10-18T06:40:59.183Z,19.13
2022-10-18T06:43:26.480Z,19.40
2022-10-18T06:45:54.028Z,18.50
2022-10-18T06:48:21.372Z,16.60
2022-10-18T06:50:59.006Z,17.30
2022-10-18T06:53:31.542Z,16.50
2022-10-18T06:56:16.542Z,16.53
2022-10-18T06:58:43.276Z,15.93
2022-10-18T07:01:12.948Z,17.67
2022-10-18T07:03:40.006Z,16.90
2022-10-18T07:06:09.055Z,16.33
2022-10-18T07:08:36.474Z,16.47
2022-10-18T07:11:03.593Z,16.50
2022-10-18T07:13:33.078Z,15.40
2022-10-18T07:16:10.629Z,15.50
2022-10-18T07:18:43.743Z,15.00
2022-10-18T07:21:13.270Z,14.43
2022-10-18T07:23:42.505Z,14.20
2022-10-18T07:26:25.153Z,15.37
2022-10-18T07:28:55.368Z,15.97
2022-10-18T07:31:23.021Z,14.57
2022-10-18T07:33:49.865Z,14.33
2022-10-18T07:36:16.856Z,12.50
2022-10-18T07:38:44.624Z,14.27
2022-10-18T07:41:13.193Z,13.97
2022-10-18T07:43:48.820Z,14.03
2022-10-18T07:46:15.903Z,13.03
2022-10-18T07:48:42.651Z,13.57
2022-10-18T07:51:10.289Z,13.00
2022-10-18T07:53:37.401Z,18.57
2022-10-18T07:56:08.773Z,18.90
2022-10-18T07:58:36.847Z,17.23
2022-10-18T08:01:08.061Z,20.10
2022-10-18T08:03:36.987Z,19.73
2022-10-18T08:06:06.135Z,20.30
2022-10-18T08:08:32.906Z,22.13
2022-10-18T08:11:11.765Z,22.90
2022-10-18T08:13:38.612Z,22.03
2022-10-18T08:16:11.320Z,23.13
2022-10-18T08:18:38.739Z,32.43
2022-10-18T08:21:07.690Z,23.80
2022-10-18T08:23:34.736Z,25.70
2022-10-18T08:26:02.553Z,25.30
2022-10-18T08:28:29.331Z,24.37
2022-10-18T08:30:56.022Z,24.47
2022-10-18T08:33:23.266Z,24.40
2022-10-18T08:36:00.885Z,26.27
2022-10-18T08:38:31.391Z,25.10
2022-10-18T08:41:16.991Z,27.90
2022-10-18T08:43:51.441Z,26.30
2022-10-18T08:46:18.255Z,26.33
2022-10-18T08:48:52.762Z,26.70
2022-10-18T08:51:58.065Z,25.90
2022-10-18T08:54:43.557Z,26.20
2022-10-18T08:57:17.981Z,27.53
2022-10-18T08:59:44.841Z,26.67
2022-10-18T09:02:38.693Z,27.23
2022-10-18T09:05:36.074Z,26.00
2022-10-18T09:08:33.025Z,28.00
2022-10-18T09:11:31.170Z,27.70
2022-10-18T09:14:04.227Z,28.13
2022-10-18T09:16:38.344Z,26.43
2022-10-18T09:19:11.097Z,27.40
2022-10-18T09:21:53.680Z,28.27
2022-10-18T09:24:38.711Z,28.60
2022-10-18T09:27:20.678Z,28.63
2022-10-18T09:30:17.488Z,30.23
2022-10-18T09:33:05.692Z,30.60
2022-10-18T09:35:47.794Z,30.83
2022-10-18T09:38:19.435Z,31.73
2022-10-18T09:40:56.505Z,31.03
2022-10-18T09:43:29.867Z,32.00
2022-10-18T09:45:57.513Z,32.73
2022-10-18T09:48:28.892Z,31.40
2022-10-18T09:51:03.273Z,31.87
2022-10-18T09:54:11.056Z,31.40
2022-10-18T09:56:42.039Z,29.00
2022-10-18T09:59:40.507Z,30.00
2022-10-18T10:02:12.961Z,32.53
2022-10-18T10:04:39.698Z,31.37
2022-10-18T10:07:11.583Z,31.70
2022-10-18T10:09:48.990Z,31.07
2022-10-18T10:12:27.779Z,27.93
2022-10-18T10:14:54.501Z,31.10
2022-10-18T10:17:25.137Z,33.90
2022-10-18T10:20:13.949Z,32.20
2022-10-18T10:22:42.541Z,31.70
2022-10-18T10:25:22.605Z,30.80
2022-10-18T10:27:50.001Z,29.33
2022-10-18T10:30:28.706Z,30.13
2022-10-18T10:32:56.820Z,29.60
2022-10-18T10:35:41.433Z,28.90
2022-10-18T10:38:24.837Z,28.83
2022-10-18T10:40:51.974Z,28.27
2022-10-18T10:43:40.476Z,27.03
2022-10-18T10:46:19.259Z,26.43
2022-10-18T10:49:09.596Z,24.03
2022-10-18T10:51:43.645Z,26.67
2022-10-18T10:54:21.514Z,26.70
2022-10-18T10:57:11.205Z,26.60
2022-10-18T10:59:48.186Z,27.20
2022-10-18T11:02:17.701Z,28.40
2022-10-18T11:04:47.811Z,27.83
2022-10-18T11:07:36.071Z,29.20
2022-10-18T11:10:16.850Z,29.57
2022-10-18T11:12:46.827Z,31.73
2022-10-18T11:15:26.226Z,30.30
2022-10-18T11:18:04.728Z,30.53
2022-10-18T11:20:34.965Z,30.77
2022-10-18T11:23:07.184Z,30.03
2022-10-18T11:26:09.173Z,32.37
2022-10-18T11:28:50.864Z,30.93
2022-10-18T11:31:38.835Z,31.65
2022-10-18T11:34:14.401Z,30.80
2022-10-18T11:37:22.907Z,31.80
2022-10-18T11:40:12.509Z,27.17
2022-10-18T11:42:52.792Z,31.60
2022-10-18T11:48:32.533Z,29.37
2022-10-18T11:51:09.486Z,29.30
2022-10-18T11:54:03.481Z,27.20
2022-10-18T11:56:58.830Z,28.50
2022-10-18T11:59:47.661Z,31.47
2022-10-18T12:02:44.966Z,30.07
2022-10-18T12:05:28.725Z,29.80
2022-10-18T12:08:07.478Z,30.57
2022-10-18T12:10:53.070Z,31.10
2022-10-18T12:13:35.087Z,33.33
2022-10-18T12:16:04.181Z,33.40
2022-10-18T12:18:32.484Z,32.80
2022-10-18T12:21:00.878Z,35.63
2022-10-18T12:23:45.963Z,38.77
2022-10-18T12:26:13.262Z,38.00
2022-10-18T12:28:48.957Z,37.27
2022-10-18T12:31:47.780Z,55.17
2022-10-18T12:34:23.874Z,41.27
2022-10-18T12:37:26.430Z,46.63
2022-10-18T12:40:18.564Z,41.13
2022-10-18T12:42:48.593Z,39.53
2022-10-18T12:45:28.562Z,47.30
2022-10-18T12:47:59.884Z,42.43
2022-10-18T12:50:42.830Z,52.27
2022-10-18T12:53:12.387Z,44.83
2022-10-18T12:55:45.188Z,46.00
2022-10-18T12:58:17.697Z,45.03
2022-10-18T13:00:45.038Z,42.60
2022-10-18T13:03:17.861Z,43.00
2022-10-18T13:05:55.969Z,44.03
2022-10-18T13:08:33.834Z,40.50
2022-10-18T13:11:12.232Z,41.47
2022-10-18T13:16:37.662Z,40.33
2022-10-18T13:19:27.886Z,44.70
2022-10-18T13:21:58.418Z,39.93
2022-10-18T13:24:35.401Z,41.17
2022-10-18T13:27:35.395Z,36.93
2022-10-18T13:30:11.436Z,37.43
2022-10-18T13:32:58.366Z,34.53
2022-10-18T13:35:46.700Z,31.47
2022-10-18T13:39:07.190Z,30.70
2022-10-18T13:41:43.297Z,27.60
2022-10-18T13:44:40.273Z,26.53
2022-10-18T13:47:07.058Z,23.90
2022-10-18T13:49:39.624Z,23.40
2022-10-18T13:52:43.208Z,22.63
2022-10-18T13:55:48.171Z,21.33
2022-10-18T13:58:25.062Z,21.30
2022-10-18T14:01:31.131Z,19.90
2022-10-18T14:04:09.517Z,20.27
2022-10-18T14:06:43.951Z,19.50
2022-10-18T14:12:38.129Z,17.10
2022-10-18T14:15:23.343Z,16.10
2022-10-18T14:18:05.017Z,15.80
2022-10-18T14:21:01.436Z,15.50
2022-10-18T14:23:40.303Z,15.10
2022-10-18T14:26:15.805Z,14.97
2022-10-18T14:28:58.978Z,13.33
2022-10-18T14:31:28.006Z,13.10
2022-10-18T14:33:58.265Z,13.30
2022-10-18T14:36:37.096Z,12.27
2022-10-18T14:39:16.684Z,12.67
2022-10-18T14:41:54.904Z,13.17
2022-10-18T14:44:26.288Z,12.10
2022-10-18T14:46:59.196Z,11.90
2022-10-18T14:49:26.430Z,12.10
2022-10-18T14:51:56.550Z,11.60
2022-10-18T14:54:35.946Z,12.17
2022-10-18T14:57:04.675Z,11.87
2022-10-18T14:59:39.815Z,11.93
2022-10-18T15:02:34.818Z,13.30
2022-10-18T15:05:21.521Z,13.83
2022-10-18T15:07:50.232Z,13.63
2022-10-18T15:10:30.123Z,16.00
2022-10-18T15:13:09.728Z,15.20
2022-10-18T15:15:38.149Z,16.20
2022-10-18T15:18:06.569Z,15.33
2022-10-18T15:20:39.330Z,15.27
2022-10-18T15:23:25.791Z,13.80
2022-10-18T15:26:00.236Z,15.67
2022-10-18T15:28:36.410Z,15.60
2022-10-18T15:31:04.745Z,15.50
2022-10-18T15:33:36.006Z,12.40
2022-10-18T15:36:11.530Z,12.23
2022-10-18T15:38:39.203Z,9.77
2022-10-18T15:42:00.018Z,8.47
2022-10-18T15:44:47.128Z,7.60
2022-10-18T15:47:13.846Z,7.40
2022-10-18T15:49:46.673Z,7.00
2022-10-18T15:52:22.294Z,7.03
2022-10-18T15:57:21.331Z,7.00
2022-10-18T16:00:02.216Z,6.20
2022-10-18T16:02:29.570Z,6.60
2022-10-18T16:04:58.312Z,5.67
2022-10-18T16:07:25.005Z,8.03
2022-10-18T16:09:51.659Z,6.67
2022-10-18T16:12:18.461Z,6.17
2022-10-18T16:14:45.155Z,6.20
2022-10-18T16:17:17.128Z,6.30
2022-10-18T16:19:44.671Z,6.63
2022-10-18T16:22:15.053Z,6.00
2022-10-18T16:24:42.037Z,6.13
2022-10-18T16:27:10.521Z,6.90
2022-10-18T16:29:37.627Z,6.40
2022-10-18T16:32:04.560Z,9.70
2022-10-18T16:34:32.181Z,49.80
2022-10-18T16:36:59.236Z,11.13
2022-10-18T16:39:26.295Z,7.33
2022-10-18T16:41:53.111Z,8.33
2022-10-18T16:44:19.886Z,6.63
2022-10-18T16:46:49.897Z,6.50
2022-10-18T16:49:25.087Z,7.10
2022-10-18T16:51:53.217Z,7.10
2022-10-18T16:54:20.051Z,6.70
2022-10-18T16:56:48.112Z,7.80
2022-10-18T16:59:29.537Z,6.60
2022-10-18T17:01:56.471Z,6.60
2022-10-18T17:04:23.296Z,7.00
2022-10-18T17:06:50.324Z,8.03
2022-10-18T17:09:17.058Z,6.80
2022-10-18T17:11:45.004Z,7.13
2022-10-18T17:14:11.654Z,8.00
2022-10-18T17:16:39.144Z,6.30
2022-10-18T17:19:08.168Z,7.50
2022-10-18T17:21:35.507Z,8.20
2022-10-18T17:24:04.372Z,9.30
2022-10-18T17:26:31.705Z,7.83
2022-10-18T17:29:01.342Z,7.73
2022-10-18T17:31:29.495Z,7.37
2022-10-18T17:33:56.315Z,7.70
2022-10-18T17:36:23.099Z,7.47
2022-10-18T17:38:53.898Z,7.83
2022-10-18T17:41:21.185Z,7.80
2022-10-18T17:43:51.017Z,8.23
2022-10-18T17:46:18.149Z,10.00
2022-10-18T17:48:45.310Z,10.67
2022-10-18T17:51:14.343Z,9.17
2022-10-18T17:53:41.368Z,8.27
2022-10-18T17:56:08.676Z,8.93
2022-10-18T17:58:35.646Z,8.97
2022-10-18T18:01:10.515Z,9.63
2022-10-18T18:03:37.339Z,10.20
2022-10-18T18:06:35.441Z,9.80
2022-10-18T18:09:07.374Z,9.20
2022-10-18T18:11:36.070Z,9.23
2022-10-18T18:14:08.787Z,9.23
2022-10-18T18:16:37.893Z,10.30
2022-10-18T18:19:09.699Z,11.47
2022-10-18T18:21:37.373Z,9.53
2022-10-18T18:24:04.494Z,9.80
2022-10-18T18:26:33.081Z,10.33
2022-10-18T18:29:00.372Z,10.40
2022-10-18T18:31:30.712Z,10.93
2022-10-18T18:34:01.241Z,9.93
2022-10-18T18:36:32.551Z,11.90
2022-10-18T18:38:59.604Z,10.00
2022-10-18T18:41:28.092Z,11.00
2022-10-18T18:43:58.107Z,9.87
2022-10-18T18:46:26.952Z,10.20
2022-10-18T18:48:54.383Z,10.57
2022-10-18T18:51:22.129Z,10.80
2022-10-18T18:53:49.351Z,11.17
2022-10-18T18:56:22.745Z,11.80
2022-10-18T18:58:50.044Z,11.13
2022-10-18T19:01:22.191Z,10.63
2022-10-18T19:03:51.497Z,10.10
2022-10-18T19:06:25.214Z,11.60
2022-10-18T19:08:54.472Z,10.83
2022-10-18T19:11:22.872Z,11.17
2022-10-18T19:13:50.093Z,11.30
2022-10-18T19:16:30.459Z,12.00
2022-10-18T19:19:02.602Z,11.13
2022-10-18T19:21:34.743Z,11.90
2022-10-18T19:24:01.950Z,13.17
2022-10-18T19:26:47.284Z,10.80
2022-10-18T19:29:38.085Z,11.63
2022-10-18T19:32:08.507Z,13.00
2022-10-18T19:34:35.788Z,11.07
2022-10-18T19:37:02.520Z,12.00
2022-10-18T19:39:31.579Z,11.50
2022-10-18T19:42:00.382Z,12.83
2022-10-18T19:44:30.587Z,12.53
2022-10-18T19:46:57.957Z,11.33
2022-10-18T19:49:25.104Z,11.77
2022-10-18T19:51:52.033Z,11.73
2022-10-18T19:54:19.037Z,12.00
2022-10-18T19:56:46.096Z,11.10
2022-10-18T19:59:15.016Z,11.40
2022-10-18T20:01:44.035Z,10.93
2022-10-18T20:04:12.170Z,11.30
2022-10-18T20:06:39.840Z,11.57
2022-10-18T20:09:07.405Z,11.07
2022-10-18T20:11:34.635Z,11.20
2022-10-18T20:14:01.601Z,11.50
2022-10-18T20:16:32.382Z,11.87
2022-10-18T20:19:01.772Z,10.70
2022-10-18T20:21:30.406Z,11.10
2022-10-18T20:23:57.575Z,11.70
2022-10-18T20:26:25.525Z,10.70
2022-10-18T20:28:58.113Z,11.63
2022-10-18T20:31:30.402Z,11.90
2022-10-18T20:34:00.224Z,11.13
2022-10-18T20:36:28.631Z,12.90
2022-10-18T20:38:55.511Z,13.97
2022-10-18T20:41:27.957Z,13.40
2022-10-18T20:43:57.306Z,12.17
2022-10-18T20:46:24.864Z,11.70
2022-10-18T20:48:53.482Z,13.80
2022-10-18T20:51:21.180Z,12.03
2022-10-18T20:53:48.425Z,13.03
2022-10-18T20:56:17.707Z,12.83
2022-10-18T20:58:45.777Z,14.47
2022-10-18T21:01:16.291Z,15.57
2022-10-18T21:03:45.034Z,15.27
2022-10-18T21:06:19.640Z,14.03
2022-10-18T21:08:46.856Z,14.07
2022-10-18T21:11:14.398Z,12.10
2022-10-18T21:13:41.145Z,12.70
2022-10-18T21:16:08.029Z,13.00
2022-10-18T21:18:36.995Z,12.40
2022-10-18T21:21:09.198Z,11.60
2022-10-18T21:23:35.978Z,13.00
2022-10-18T21:26:02.873Z,12.37
2022-10-18T21:28:29.829Z,12.20
2022-10-18T21:30:57.939Z,11.50
2022-10-18T21:33:24.674Z,13.60
2022-10-18T21:35:51.708Z,12.43
2022-10-18T21:38:18.396Z,12.83
2022-10-18T21:40:45.049Z,11.77
2022-10-18T21:43:11.831Z,12.47
2022-10-18T21:45:38.533Z,11.20
2022-10-18T21:48:05.424Z,10.07
2022-10-18T21:50:34.223Z,10.50
2022-10-18T21:53:00.960Z,10.87
2022-10-18T21:55:27.675Z,10.63
2022-10-18T21:57:54.349Z,10.57
2022-10-18T22:00:21.175Z,12.13
2022-10-18T22:02:48.139Z,11.87
2022-10-18T22:05:14.831Z,11.37
2022-10-18T22:07:41.545Z,11.40
2022-10-18T22:10:08.621Z,11.10
2022-10-18T22:12:35.337Z,11.93
2022-10-18T22:15:02.655Z,10.60
2022-10-18T22:17:29.409Z,9.50
2022-10-18T22:19:56.140Z,10.60
2022-10-18T22:22:23.582Z,9.73
2022-10-18T22:24:50.269Z,11.53
2022-10-18T22:27:17.070Z,10.80
2022-10-18T22:29:43.858Z,11.47
2022-10-18T22:32:10.593Z,11.90
2022-10-18T22:34:37.417Z,11.40
2022-10-18T22:37:04.103Z,11.83
2022-10-18T22:39:30.827Z,13.50
2022-10-18T22:41:57.559Z,11.17
2022-10-18T22:44:24.960Z,11.93
2022-10-18T22:46:51.674Z,11.87
2022-10-18T22:49:18.411Z,10.87
2022-10-18T22:51:45.162Z,11.13
2022-10-18T22:54:11.897Z,11.10
2022-10-18T22:56:38.754Z,12.53
2022-10-18T22:59:05.459Z,12.93
2022-10-18T23:01:32.173Z,11.93
2022-10-18T23:04:00.427Z,11.50
2022-10-18T23:06:35.395Z,11.20
2022-10-18T23:09:05.532Z,12.53
2022-10-18T23:11:32.778Z,12.03
2022-10-18T23:13:59.466Z,11.93
2022-10-18T23:16:26.286Z,12.70
2022-10-18T23:18:55.429Z,12.43
2022-10-18T23:21:24.339Z,12.10
2022-10-18T23:23:52.397Z,14.37
2022-10-18T23:26:27.349Z,12.43
2022-10-18T23:28:54.747Z,12.70
2022-10-18T23:31:23.252Z,13.90
2022-10-18T23:33:52.528Z,12.00
2022-10-18T23:36:19.387Z,12.70
2022-10-18T23:38:46.191Z,11.17
2022-10-18T23:41:14.340Z,12.20
2022-10-18T23:43:42.191Z,11.37
2022-10-18T23:46:09.619Z,11.00
2022-10-18T23:48:36.697Z,12.60
2022-10-18T23:51:03.854Z,11.33
2022-10-18T23:53:30.812Z,11.60
2022-10-18T23:56:01.879Z,10.87
2022-10-18T23:58:30.159Z,11.77
